Time;durP1;ratioP1;P1;durP2;ratioP2;P2;SDS_P1;SDS_P2;PMS_P1;PMS_P2;Temp;Humidity;BMP_temperature;BMP_pressure;BME280_temperature;BME280_humidity;BME280_pressure;Samples;Min_cycle;Max_cycle;Signal;HPM_P1;HPM_P2
2023/04/28 00:00:27;;;;;;;;;;;7.80;39.50;;;6.49;42.17;101608.59;12257166;19;19911;-82
2023/04/28 00:04:29;;;;;;;;;;;7.80;39.60;;;6.39;42.12;101596.72;12255418;19;19923;-83
2023/04/28 00:08:31;;;;;;;;;;;7.80;39.60;;;6.58;42.00;101618.72;12252418;19;19922;-83
2023/04/28 00:12:32;;;;;;;;;;;7.80;40.00;;;6.41;42.01;101595.78;12257188;19;19922;-82
2023/04/28 00:16:34;;;;;;;;;;;7.80;39.70;;;6.59;42.06;101620.44;12255784;19;19918;-82
2023/04/28 00:20:36;;;;;;;;;;;7.80;39.70;;;6.56;42.04;101615.34;12256503;19;19978;-83
2023/04/28 00:24:37;;;;;;;;;;;7.80;39.70;;;6.47;42.22;101599.13;12255945;19;19939;-82
2023/04/28 00:28:39;;;;;;;;;;;7.80;39.70;;;6.46;42.03;101603.47;12251448;19;19919;-82
2023/04/28 00:32:40;;;;;;;;;;;7.80;39.80;;;6.27;42.05;101581.44;12254235;19;19934;-83
2023/04/28 00:36:42;;;;;;;;;;;7.80;39.80;;;6.27;42.10;101589.22;12257378;19;19910;-83
2023/04/28 00:40:44;;;;;;;;;;;7.70;39.70;;;6.32;42.29;101605.50;12266824;19;19931;-83
2023/04/28 00:44:46;;;;;;;;;;;7.90;39.70;;;6.28;42.13;101607.34;12266214;19;19926;-82
2023/04/28 00:48:48;;;;;;;;;;;7.60;39.60;;;6.08;42.11;101570.66;12260988;19;19919;-83
2023/04/28 00:52:51;;;;;;;;;;;7.80;39.80;;;6.20;42.32;101597.13;12265064;19;19936;-82
2023/04/28 00:56:53;;;;;;;;;;;7.50;39.80;;;5.65;42.34;101525.78;12263292;19;19911;-82
2023/04/28 01:01:02;;;;;;;;;;;7.40;39.80;;;5.65;42.40;101538.72;12264464;19;19914;-82
2023/04/28 01:05:04;;;;;;;;;;;7.40;40.10;;;5.69;42.40;101558.50;12264621;19;19933;-82
2023/04/28 01:09:07;;;;;;;;;;;7.30;39.70;;;5.67;42.36;101555.09;12264598;19;19911;-83
2023/04/28 01:13:11;;;;;;;;;;;7.20;39.80;;;5.63;42.44;101552.59;12264167;19;19911;-82
2023/04/28 01:17:13;;;;;;;;;;;7.10;39.70;;;5.59;42.17;101557.00;12259326;19;19911;-83
2023/04/28 01:21:26;;;;;;;;;;;7.10;39.70;;;5.55;42.27;101555.34;12265650;19;19930;-83
2023/04/28 01:25:28;;;;;;;;;;;7.00;39.80;;;5.28;42.33;101518.78;12266868;19;19918;-83
2023/04/28 01:29:30;;;;;;;;;;;7.10;40.00;;;5.52;42.35;101558.84;12262998;19;19947;-82
2023/04/28 01:33:32;;;;;;;;;;;7.00;39.90;;;5.15;42.50;101503.50;12266371;19;20352;-82
2023/04/28 01:37:34;;;;;;;;;;;7.00;40.10;;;5.49;42.30;101565.84;12258500;19;19915;-82
2023/04/28 01:41:36;;;;;;;;;;;6.90;39.90;;;5.39;42.44;101552.22;12260812;19;19915;-82
2023/04/28 01:45:38;;;;;;;;;;;6.90;40.00;;;5.40;42.71;101555.66;12256191;19;19930;-83
2023/04/28 01:49:40;;;;;;;;;;;6.90;40.00;;;5.39;42.60;101554.81;12260346;19;19911;-82
2023/04/28 01:53:42;;;;;;;;;;;6.90;40.10;;;5.39;42.73;101544.44;12262332;19;19925;-82
2023/04/28 01:57:43;;;;;;;;;;;6.90;40.10;;;5.46;42.46;101560.72;12262831;19;19918;-83
2023/04/28 02:01:45;;;;;;;;;;;6.80;39.90;;;5.21;42.72;101535.34;12265913;19;19906;-83
2023/04/28 02:05:47;;;;;;;;;;;6.80;39.90;;;5.28;42.76;101551.59;12261348;19;19947;-82
2023/04/28 02:09:49;;;;;;;;;;;7.00;40.10;;;5.29;42.77;101558.47;12263113;19;19925;-82
2023/04/28 02:13:51;;;;;;;;;;;6.70;40.00;;;5.14;42.81;101533.72;12263037;19;20318;-83
2023/04/28 02:17:53;;;;;;;;;;;6.70;40.00;;;5.26;42.85;101561.97;12259886;19;19907;-83
2023/04/28 02:21:55;;;;;;;;;;;6.70;40.10;;;5.24;42.86;101555.97;12262204;19;19919;-83
2023/04/28 02:26:00;;;;;;;;;;;6.70;40.10;;;5.24;42.90;101561.16;12261758;19;19964;-83
2023/04/28 02:30:04;;;;;;;;;;;6.70;40.10;;;5.26;42.64;101551.59;12262903;19;19911;-83
2023/04/28 02:34:05;;;;;;;;;;;6.70;40.20;;;5.21;42.72;101553.47;12264680;19;19915;-83
2023/04/28 02:38:07;;;;;;;;;;;6.90;40.30;;;5.04;42.94;101532.19;12258824;19;19917;-82
2023/04/28 02:42:11;;;;;;;;;;;6.60;40.10;;;5.12;42.96;101545.84;12263020;19;19930;-82
2023/04/28 02:46:13;;;;;;;;;;;6.80;40.30;;;5.01;42.92;101516.72;12261306;19;19950;-83
2023/04/28 02:50:16;;;;;;;;;;;6.90;40.50;;;5.02;42.78;101521.00;12260942;19;19927;-83
2023/04/28 02:54:26;;;;;;;;;;;6.60;40.20;;;5.10;42.96;101532.06;12262878;19;19951;-83
2023/04/28 02:58:27;;;;;;;;;;;6.70;40.40;;;5.07;43.11;101525.22;12259260;19;19926;-83
2023/04/28 03:02:29;;;;;;;;;;;6.60;40.30;;;5.06;43.12;101505.41;12262451;19;19907;-83
2023/04/28 03:06:31;;;;;;;;;;;6.60;40.40;;;4.80;43.05;101467.09;12262689;19;19915;-83
2023/04/28 03:10:34;;;;;;;;;;;6.60;40.40;;;5.00;42.95;101497.78;12263305;19;19933;-82
2023/04/28 03:14:37;;;;;;;;;;;6.60;40.40;;;4.99;43.00;101502.97;12259956;19;19911;-83
2023/04/28 03:18:39;;;;;;;;;;;6.60;40.40;;;4.84;43.28;101478.25;12257142;19;19943;-83
2023/04/28 03:22:41;;;;;;;;;;;6.60;40.40;;;4.74;43.20;101456.84;12256584;19;19915;-83
2023/04/28 03:26:42;;;;;;;;;;;6.60;40.40;;;5.04;43.25;101501.97;12255909;19;19927;-83
2023/04/28 03:30:44;;;;;;;;;;;6.90;40.60;;;5.05;43.10;101508.00;12255857;19;19914;-82
2023/04/28 03:34:45;;;;;;;;;;;6.80;40.60;;;5.15;43.29;101511.28;12258557;19;19929;-83
2023/04/28 03:38:48;;;;;;;;;;;6.80;40.70;;;5.16;43.28;101511.25;12253804;19;19922;-82
2023/04/28 03:42:49;;;;;;;;;;;6.90;40.60;;;5.14;43.07;101507.00;12253131;19;20329;-82
2023/04/28 03:47:00;;;;;;;;;;;6.70;40.50;;;5.04;43.34;101506.31;12252469;19;20245;-82
2023/04/28 03:51:02;;;;;;;;;;;6.60;40.50;;;5.08;43.29;101502.81;12255927;19;19919;-83
2023/04/28 03:55:04;;;;;;;;;;;6.60;40.70;;;5.12;43.33;101503.59;12256870;19;19965;-82
2023/04/28 03:59:05;;;;;;;;;;;6.70;40.70;;;5.15;43.43;101503.50;12253853;19;19934;-83
2023/04/28 04:03:07;;;;;;;;;;;6.70;40.60;;;5.10;43.32;101488.06;12257605;19;20274;-83
2023/04/28 04:07:08;;;;;;;;;;;7.00;40.70;;;4.99;43.59;101475.34;12257270;19;19979;-83
2023/04/28 04:11:10;;;;;;;;;;;6.70;40.50;;;4.75;43.63;101435.31;12264510;19;19910;-83
2023/04/28 04:15:12;;;;;;;;;;;6.70;41.00;;;5.08;43.55;101487.28;12270434;19;19930;-83
2023/04/28 04:19:15;;;;;;;;;;;6.70;40.70;;;5.14;43.64;101486.28;12266156;19;19922;-83
2023/04/28 04:23:18;;;;;;;;;;;6.70;40.70;;;5.03;43.65;101468.38;12272312;19;19922;-82
2023/04/28 04:27:20;;;;;;;;;;;6.70;40.70;;;4.99;43.49;101456.38;12257997;19;19931;-82
2023/04/28 04:31:21;;;;;;;;;;;6.70;40.70;;;4.81;43.55;101427.41;12263757;19;19914;-83
2023/04/28 04:35:23;;;;;;;;;;;6.70;40.90;;;5.19;43.80;101481.88;12263826;19;19919;-83
2023/04/28 04:39:25;;;;;;;;;;;6.70;41.00;;;5.16;43.62;101469.84;12264962;19;19911;-83
2023/04/28 04:43:27;;;;;;;;;;;6.80;41.10;;;5.20;43.72;101470.63;12270545;19;19915;-83
2023/04/28 04:47:28;;;;;;;;;;;6.80;41.00;;;5.26;43.63;101480.84;12266100;19;19923;-83
2023/04/28 04:51:31;;;;;;;;;;;6.80;41.00;;;5.29;43.68;101473.88;12272001;19;19930;-83
2023/04/28 04:55:32;;;;;;;;;;;6.80;40.90;;;5.31;43.96;101459.13;12269714;19;19927;-83
2023/04/28 04:59:34;;;;;;;;;;;6.80;41.00;;;5.34;44.00;101460.81;12264109;19;19930;-83
2023/04/28 05:03:42;;;;;;;;;;;6.90;41.00;;;5.37;43.78;101465.91;12269526;19;20341;-84
2023/04/28 05:07:43;;;;;;;;;;;6.90;41.20;;;5.37;43.99;101450.38;12264374;19;20243;-83
2023/04/28 05:11:45;;;;;;;;;;;7.20;41.30;;;5.46;43.79;101452.78;12266859;19;19915;-82
2023/04/28 05:15:46;;;;;;;;;;;7.00;41.30;;;5.44;43.99;101439.00;12267978;19;19919;-83
2023/04/28 05:20:03;;;;;;;;;;;7.10;41.30;;;5.59;44.07;101447.31;12264394;19;20337;-83
2023/04/28 05:24:05;;;;;;;;;;;7.20;41.40;;;5.71;44.03;101447.03;12268013;19;20330;-83
2023/04/28 05:28:09;;;;;;;;;;;7.30;41.50;;;5.57;43.98;101410.25;12262768;19;19923;-83
2023/04/28 05:32:11;;;;;;;;;;;7.10;41.60;;;5.69;44.09;101408.19;12269157;19;19938;-83
2023/04/28 05:36:15;;;;;;;;;;;7.40;41.60;;;5.94;44.11;101430.97;12265032;19;19931;-83
2023/04/28 05:40:17;;;;;;;;;;;7.60;41.50;;;6.06;44.26;101438.44;12267602;19;19923;-83
2023/04/28 05:44:19;;;;;;;;;;;7.60;41.80;;;6.05;44.34;101418.59;12266220;19;19914;-83
2023/04/28 05:48:22;;;;;;;;;;;7.80;41.90;;;6.19;44.26;101413.06;12256623;19;19919;-82
2023/04/28 05:52:24;;;;;;;;;;;7.90;42.10;;;6.49;44.49;101426.13;12261547;19;19915;-83
2023/04/28 05:56:25;;;;;;;;;;;8.00;42.30;;;6.69;44.43;101412.59;12257938;19;19926;-83
2023/04/28 06:00:26;;;;;;;;;;;8.20;42.90;;;6.89;44.50;101412.03;12260681;19;19918;-84
2023/04/28 06:04:30;;;;;;;;;;;8.40;42.50;;;7.05;44.43;101389.91;12263649;19;19925;-83
2023/04/28 06:08:32;;;;;;;;;;;8.70;42.60;;;7.43;44.66;101403.50;12260591;19;19915;-83
2023/04/28 06:12:33;;;;;;;;;;;9.00;42.90;;;7.74;44.66;101414.59;12264200;19;20275;-83
2023/04/28 06:16:35;;;;;;;;;;;9.30;43.00;;;8.01;44.51;101392.94;12263368;19;19978;-84
2023/04/28 06:20:37;;;;;;;;;;;9.60;43.10;;;8.29;44.59;101396.31;12261194;19;19918;-84
2023/04/28 06:24:40;;;;;;;;;;;9.90;42.40;;;8.57;44.52;101387.53;12265395;19;19990;-84
2023/04/28 06:28:45;;;;;;;;;;;10.20;42.60;;;8.83;44.75;101379.63;12257044;19;19919;-82
2023/04/28 06:32:47;;;;;;;;;;;10.50;42.50;;;8.97;44.81;101355.66;12261940;19;20249;-83
2023/04/28 06:36:48;;;;;;;;;;;10.70;42.40;;;9.35;44.50;101375.94;12251143;19;19982;-83
2023/04/28 06:40:50;;;;;;;;;;;10.90;42.60;;;9.64;44.61;101380.81;12260579;19;19929;-83
2023/04/28 06:44:51;;;;;;;;;;;11.20;42.10;;;9.72;44.67;101350.06;12262643;19;19947;-84
2023/04/28 06:48:53;;;;;;;;;;;11.50;41.80;;;10.04;44.66;101357.41;12261147;19;19976;-83
2023/04/28 06:52:54;;;;;;;;;;;11.70;41.80;;;10.39;44.45;101372.41;12262458;19;19914;-83
2023/04/28 06:56:56;;;;;;;;;;;12.00;41.50;;;10.59;44.58;101361.09;12256571;19;20457;-82
2023/04/28 07:00:59;;;;;;;;;;;12.20;41.10;;;10.86;44.22;101360.78;12257090;19;19939;-84
2023/04/28 07:05:00;;;;;;;;;;;12.40;41.20;;;10.97;44.58;101357.66;12262426;19;19918;-84
2023/04/28 07:09:02;;;;;;;;;;;12.60;41.00;;;11.07;44.17;101340.59;12257424;19;19992;-84
2023/04/28 07:13:03;;;;;;;;;;;12.80;41.00;;;11.27;44.36;101348.34;12260067;19;19935;-84
2023/04/28 07:17:04;;;;;;;;;;;12.90;40.80;;;11.36;44.17;101331.38;12254496;19;19934;-84
2023/04/28 07:21:06;;;;;;;;;;;13.10;40.50;;;11.54;44.16;101331.41;12258966;19;19991;-84
2023/04/28 07:25:10;;;;;;;;;;;13.20;40.20;;;11.50;44.10;101287.09;12254938;19;20004;-84
2023/04/28 07:29:13;;;;;;;;;;;13.40;40.40;;;11.97;43.93;101330.13;12252419;19;19943;-84
2023/04/28 07:33:15;;;;;;;;;;;13.50;39.90;;;12.12;44.13;101318.00;12256710;19;20344;-84
2023/04/28 07:37:17;;;;;;;;;;;13.70;39.00;;;12.26;44.04;101310.28;12253214;19;19945;-85
2023/04/28 07:41:18;;;;;;;;;;;13.90;39.90;;;12.43;43.95;101305.91;12258484;19;19923;-84
2023/04/28 07:45:20;;;;;;;;;;;14.00;39.90;;;12.31;44.14;101262.88;12257689;19;20234;-84
2023/04/28 07:49:21;;;;;;;;;;;14.20;39.70;;;12.51;43.86;101257.41;12250457;19;19925;-84
2023/04/28 07:53:23;;;;;;;;;;;14.40;39.60;;;12.83;43.77;101278.38;12255785;19;19918;-84
2023/04/28 07:57:25;;;;;;;;;;;14.50;39.50;;;13.12;43.74;101284.59;12246621;19;19949;-84
2023/04/28 08:01:26;;;;;;;;;;;14.70;38.90;;;13.14;43.70;101260.91;12254894;19;19982;-84
2023/04/28 08:05:28;;;;;;;;;;;14.80;39.60;;;13.43;43.59;101285.50;12246570;19;19925;-85
2023/04/28 08:09:30;;;;;;;;;;;15.00;37.90;;;13.71;43.63;101300.44;12252844;19;19919;-85
2023/04/28 08:13:32;;;;;;;;;;;15.20;39.30;;;13.69;43.57;101263.81;12257239;19;19930;-84
2023/04/28 08:17:33;;;;;;;;;;;15.30;38.90;;;13.86;43.51;101278.53;12252146;19;19921;-83
2023/04/28 08:21:35;;;;;;;;;;;15.50;39.30;;;13.98;43.64;101263.81;12256582;19;19919;-84
2023/04/28 08:25:36;;;;;;;;;;;15.60;39.30;;;14.20;43.55;101276.47;12256863;19;20472;-85
2023/04/28 08:29:39;;;;;;;;;;;15.70;38.50;;;14.25;43.43;101253.41;12250687;19;19919;-87
2023/04/28 08:33:43;;;;;;;;;;;15.90;38.90;;;14.52;43.35;101277.13;12246716;19;19911;-86
2023/04/28 08:37:46;;;;;;;;;;;16.00;37.60;;;14.43;43.39;101238.28;12246395;19;20501;-86
2023/04/28 08:41:48;;;;;;;;;;;16.20;38.60;;;14.73;43.35;101245.19;12255697;19;19927;-85
2023/04/28 08:45:49;;;;;;;;;;;16.30;38.20;;;14.76;43.28;101223.94;12069730;19;3603769;-85
2023/04/28 08:49:52;;;;;;;;;;;16.50;39.00;;;15.05;43.16;101241.31;12262711;19;20366;-85
2023/04/28 08:53:54;;;;;;;;;;;16.60;38.30;;;15.09;43.15;101214.78;12259282;19;19927;-85
2023/04/28 08:57:56;;;;;;;;;;;16.90;37.80;;;15.43;43.15;101240.53;12265114;19;20332;-84
2023/04/28 09:01:59;;;;;;;;;;;16.90;38.50;;;15.43;43.18;101206.31;12267920;19;19927;-85
2023/04/28 09:06:01;;;;;;;;;;;17.10;38.50;;;15.66;43.20;101206.53;12268385;19;19926;-85
2023/04/28 09:10:20;;;;;;;;;;;17.20;38.20;;;15.79;42.91;101214.47;12271512;19;19960;-85
2023/04/28 09:14:22;;;;;;;;;;;17.30;38.80;;;15.95;42.84;101225.63;12271633;19;20346;-85
2023/04/28 09:18:24;;;;;;;;;;;17.40;36.50;;;16.03;42.88;101225.91;12268677;19;19919;-86
2023/04/28 09:22:27;;;;;;;;;;;17.50;38.20;;;16.13;43.01;101218.22;12270149;19;19919;-84
2023/04/28 09:26:47;;;;;;;;;;;17.60;38.40;;;16.12;42.83;101200.72;12267830;19;19922;-84
2023/04/28 09:30:49;;;;;;;;;;;17.70;37.10;;;16.23;42.50;101203.44;12269006;19;19915;-85
2023/04/28 09:34:52;;;;;;;;;;;17.80;37.20;;;16.34;42.69;101205.31;12268185;19;19947;-85
2023/04/28 09:38:57;;;;;;;;;;;17.80;37.00;;;16.41;42.67;101192.53;12263077;19;19919;-85
2023/04/28 09:42:59;;;;;;;;;;;17.90;37.50;;;16.50;42.50;101202.38;12266116;19;19950;-85
2023/04/28 09:47:18;;;;;;;;;;;18.00;38.00;;;16.52;42.59;101182.03;12263400;19;20318;-85
2023/04/28 09:51:20;;;;;;;;;;;18.10;37.60;;;16.68;42.43;101187.88;12263823;19;19923;-85
2023/04/28 09:55:22;;;;;;;;;;;18.10;37.80;;;16.81;42.49;101188.69;12265012;19;19915;-85
2023/04/28 09:59:23;;;;;;;;;;;18.20;36.10;;;16.83;42.49;101179.84;12260646;19;19935;-85
2023/04/28 10:03:26;;;;;;;;;;;18.30;37.40;;;17.00;42.24;101189.97;12257043;19;20024;-84
2023/04/28 10:07:29;;;;;;;;;;;18.40;36.20;;;16.99;42.28;101146.91;12250745;19;20692;-84
2023/04/28 10:11:32;;;;;;;;;;;18.50;36.80;;;17.13;42.17;101155.56;12255208;19;20309;-84
2023/04/28 10:15:35;;;;;;;;;;;18.60;37.30;;;17.29;42.04;101171.09;12255263;19;19927;-84
2023/04/28 10:19:36;;;;;;;;;;;18.70;37.30;;;17.29;41.79;101136.78;12258064;19;19923;-84
2023/04/28 10:24:00;;;;;;;;;;;18.80;37.70;;;17.48;42.00;101155.50;12256342;19;19911;-85
2023/04/28 10:28:06;;;;;;;;;;;18.90;37.30;;;17.49;41.80;101136.06;12245866;19;19922;-85
2023/04/28 10:32:24;;;;;;;;;;;18.90;37.60;;;17.56;41.56;101137.25;12256512;19;19922;-86
2023/04/28 10:36:46;;;;;;;;;;;19.00;37.10;;;17.68;41.58;101138.94;12255439;19;19986;-85
2023/04/28 10:41:01;;;;;;;;;;;19.10;36.70;;;17.66;41.79;101117.09;12254726;19;19935;-84
2023/04/28 10:45:03;;;;;;;;;;;19.10;36.60;;;17.77;41.64;101118.03;12252234;19;19920;-83
2023/04/28 10:49:05;;;;;;;;;;;19.20;37.60;;;17.87;41.75;101111.09;12253518;19;19922;-83
2023/04/28 10:53:06;;;;;;;;;;;19.30;37.20;;;17.92;41.56;101103.63;12252826;19;19919;-84
2023/04/28 10:57:16;;;;;;;;;;;19.30;37.10;;;18.01;41.49;101094.13;12250543;19;19963;-84
2023/04/28 11:01:23;;;;;;;;;;;19.40;37.50;;;18.21;41.40;101108.38;12249724;19;19914;-84
2023/04/28 11:05:27;;;;;;;;;;;19.50;37.30;;;18.27;41.42;101099.94;12252186;19;19927;-83
2023/04/28 11:09:32;;;;;;;;;;;19.60;37.90;;;18.42;41.44;101100.50;12249298;19;19911;-84
2023/04/28 11:13:33;;;;;;;;;;;19.70;37.70;;;18.50;41.50;101096.25;12250219;19;19914;-84
2023/04/28 11:17:40;;;;;;;;;;;19.80;36.90;;;18.53;41.44;101081.94;12247601;19;19939;-84
2023/04/28 11:21:41;;;;;;;;;;;19.90;35.70;;;18.72;41.09;101089.19;12250188;19;20266;-83
2023/04/28 11:25:56;;;;;;;;;;;20.00;36.20;;;18.80;41.36;101097.34;12258121;19;19934;-85
2023/04/28 11:30:00;;;;;;;;;;;20.20;37.30;;;18.78;40.93;101086.06;12244043;19;20297;-84
2023/04/28 11:34:06;;;;;;;;;;;20.10;36.90;;;18.80;41.22;101078.84;12257272;19;19919;-84
2023/04/28 11:38:07;;;;;;;;;;;20.20;36.60;;;18.77;41.22;101072.00;12247637;19;20393;-84
2023/04/28 11:42:09;;;;;;;;;;;20.20;36.10;;;18.88;40.71;101086.97;12253166;19;19915;-84
2023/04/28 11:46:18;;;;;;;;;;;20.20;35.70;;;18.69;41.22;101049.75;12252626;19;19923;-85
2023/04/28 11:50:36;;;;;;;;;;;20.20;34.60;;;18.85;40.95;101071.34;12253262;19;19936;-85
2023/04/28 11:54:41;;;;;;;;;;;20.20;36.30;;;18.64;40.73;101026.34;12249663;19;19911;-85
2023/04/28 11:58:42;;;;;;;;;;;20.20;35.60;;;18.92;40.75;101061.06;12248314;19;20314;-86
2023/04/28 12:02:44;;;;;;;;;;;20.20;36.60;;;18.70;40.80;101022.31;12249851;19;20239;-86
2023/04/28 12:06:45;;;;;;;;;;;20.30;37.00;;;18.92;40.54;101055.78;12251137;19;19914;-86
2023/04/28 12:11:07;;;;;;;;;;;20.30;36.70;;;18.72;40.70;101021.22;12248738;19;20337;-86
2023/04/28 12:15:09;;;;;;;;;;;20.20;34.80;;;19.05;40.66;101064.34;12251017;19;20397;-86
2023/04/28 12:19:11;;;;;;;;;;;20.30;36.30;;;18.96;40.39;101034.22;12252112;19;19911;-83
2023/04/28 12:23:13;;;;;;;;;;;20.30;34.70;;;19.05;40.54;101040.53;12248926;19;19915;-84
2023/04/28 12:27:23;;;;;;;;;;;20.30;33.30;;;19.10;40.60;101040.13;12251712;19;19926;-84
2023/04/28 12:31:25;;;;;;;;;;;20.30;35.60;;;19.12;40.57;101028.44;12255089;19;19931;-83
2023/04/28 12:35:28;;;;;;;;;;;20.40;36.30;;;19.28;40.38;101048.28;12261547;19;20622;-83
2023/04/28 12:39:29;;;;;;;;;;;20.50;36.20;;;19.23;40.42;101027.50;12257348;19;19926;-85
2023/04/28 12:43:33;;;;;;;;;;;20.50;36.60;;;19.39;40.16;101045.56;12259719;19;19974;-83
2023/04/28 12:47:35;;;;;;;;;;;20.60;35.40;;;19.38;40.06;101023.50;12258600;19;19927;-83
2023/04/28 12:51:38;;;;;;;;;;;20.60;36.20;;;19.44;40.27;101020.34;12260532;19;19944;-83
2023/04/28 12:55:39;;;;;;;;;;;20.60;35.80;;;19.50;39.95;101031.38;12262297;19;19918;-84
2023/04/28 12:59:41;;;;;;;;;;;20.70;33.70;;;19.28;40.25;100990.88;12255484;19;19923;-83
2023/04/28 13:03:43;;;;;;;;;;;20.70;35.20;;;19.54;39.98;101019.50;12254300;19;19931;-82
2023/04/28 13:07:44;;;;;;;;;;;20.70;35.80;;;19.42;40.07;100997.59;12245727;19;19915;-83
2023/04/28 13:11:46;;;;;;;;;;;20.70;35.70;;;19.57;39.81;101006.81;12246598;19;19923;-82
2023/04/28 13:15:48;;;;;;;;;;;20.80;36.20;;;19.58;40.10;101002.38;12252338;19;19919;-84
2023/04/28 13:19:50;;;;;;;;;;;20.80;36.30;;;19.60;39.83;101001.25;12247015;19;20341;-82
2023/04/28 13:23:55;;;;;;;;;;;20.80;35.90;;;19.53;39.89;100986.06;12258907;19;19915;-83
2023/04/28 13:27:56;;;;;;;;;;;20.80;35.70;;;19.56;39.84;100991.91;12245847;19;19922;-83
2023/04/28 13:31:58;;;;;;;;;;;20.80;36.00;;;19.57;40.00;100977.69;12256104;19;19921;-82
2023/04/28 13:36:00;;;;;;;;;;;20.80;35.40;;;19.61;39.91;100975.63;12257167;19;19943;-83
2023/04/28 13:40:03;;;;;;;;;;;20.80;36.40;;;19.67;39.87;100977.75;12239836;19;19982;-83
2023/04/28 13:44:04;;;;;;;;;;;20.80;35.80;;;19.39;39.78;100929.03;12253721;19;20413;-83
2023/04/28 13:48:06;;;;;;;;;;;20.90;35.70;;;19.62;39.58;100974.63;12246529;19;19978;-82
2023/04/28 13:52:07;;;;;;;;;;;20.80;36.40;;;19.58;39.51;100955.53;12255606;19;19922;-82
2023/04/28 13:56:09;;;;;;;;;;;20.80;36.40;;;19.60;39.47;100965.97;12249673;19;19911;-82
2023/04/28 14:00:11;;;;;;;;;;;20.80;36.30;;;19.64;39.38;100959.44;12248083;19;19919;-83
2023/04/28 14:04:13;;;;;;;;;;;20.80;36.90;;;19.69;39.63;100967.84;12252991;19;19911;-83
2023/04/28 14:08:16;;;;;;;;;;;20.80;36.90;;;19.69;39.58;100967.00;12250513;19;19989;-83
2023/04/28 14:12:17;;;;;;;;;;;20.80;37.20;;;19.49;39.48;100923.72;12243522;19;19914;-83
2023/04/28 14:16:19;;;;;;;;;;;20.80;36.70;;;19.49;39.59;100921.91;12237112;19;19965;-83
2023/04/28 14:20:21;;;;;;;;;;;20.80;37.20;;;19.58;39.52;100930.84;12240015;19;19943;-83
2023/04/28 14:24:23;;;;;;;;;;;20.80;37.40;;;19.70;39.58;100947.47;12246404;19;19919;-83
2023/04/28 14:28:24;;;;;;;;;;;20.80;37.20;;;19.63;39.72;100928.59;12246699;19;19926;-83
2023/04/28 14:32:26;;;;;;;;;;;20.80;37.40;;;19.59;39.60;100920.09;12248229;19;20341;-83
2023/04/28 14:36:28;;;;;;;;;;;20.80;37.20;;;19.65;39.44;100918.72;12244867;19;19922;-84
2023/04/28 14:40:30;;;;;;;;;;;20.70;37.40;;;19.67;39.43;100924.75;12247860;19;19922;-82
2023/04/28 14:44:33;;;;;;;;;;;20.80;37.60;;;19.66;39.62;100925.72;12250316;19;20293;-83
2023/04/28 14:48:35;;;;;;;;;;;20.70;37.70;;;19.62;39.43;100922.47;12243852;19;20341;-84
2023/04/28 14:52:37;;;;;;;;;;;20.70;37.60;;;19.54;39.60;100897.66;12247001;19;19935;-83
2023/04/28 14:56:38;;;;;;;;;;;20.70;37.70;;;19.55;39.47;100899.31;12245742;19;19956;-83
2023/04/28 15:00:40;;;;;;;;;;;20.80;37.70;;;19.58;39.71;100905.19;12248633;19;19982;-83
2023/04/28 15:04:43;;;;;;;;;;;20.80;37.60;;;19.67;39.51;100916.78;12248625;19;19907;-83
2023/04/28 15:08:45;;;;;;;;;;;20.70;37.60;;;19.62;39.76;100908.41;12244335;19;20369;-83
2023/04/28 15:12:47;;;;;;;;;;;20.70;37.60;;;19.64;39.56;100895.84;12248697;19;19926;-83
2023/04/28 15:16:49;;;;;;;;;;;20.70;37.70;;;19.65;39.52;100902.81;12245644;19;19907;-84
2023/04/28 15:20:50;;;;;;;;;;;20.70;37.80;;;19.66;39.57;100904.53;12241289;19;19939;-83
2023/04/28 15:24:52;;;;;;;;;;;20.70;37.90;;;19.70;39.51;100897.13;12255526;19;20284;-83
2023/04/28 15:28:53;;;;;;;;;;;20.70;37.90;;;19.65;39.60;100898.34;12255800;19;19986;-83
2023/04/28 15:32:55;;;;;;;;;;;20.70;37.90;;;19.67;39.30;100906.19;12255661;19;20287;-84
2023/04/28 15:36:56;;;;;;;;;;;20.70;38.00;;;19.64;39.75;100901.16;12253539;19;19914;-83
2023/04/28 15:40:57;;;;;;;;;;;20.70;38.00;;;19.59;39.70;100901.56;12248217;19;19923;-83
2023/04/28 15:45:01;;;;;;;;;;;20.70;38.10;;;19.52;39.64;100889.00;12251355;19;19923;-84
2023/04/28 15:49:03;;;;;;;;;;;20.70;38.20;;;19.41;39.67;100877.56;12246801;19;20333;-84
2023/04/28 15:53:04;;;;;;;;;;;20.60;38.20;;;19.56;39.42;100896.53;12249195;19;19943;-83
2023/04/28 15:57:05;;;;;;;;;;;20.60;38.20;;;19.51;39.61;100904.06;12248409;19;19922;-83
2023/04/28 16:01:07;;;;;;;;;;;20.60;38.60;;;19.46;39.79;100901.00;12250807;19;19923;-83
2023/04/28 16:05:09;;;;;;;;;;;20.50;38.10;;;19.38;39.49;100890.25;12242842;19;19930;-84
2023/04/28 16:09:10;;;;;;;;;;;20.40;38.20;;;19.17;39.45;100846.19;12246205;19;19951;-83
2023/04/28 16:13:12;;;;;;;;;;;20.40;38.30;;;19.35;39.42;100872.81;12249060;19;19931;-84
2023/04/28 16:17:13;;;;;;;;;;;20.40;38.40;;;19.09;39.45;100832.81;12248755;19;20398;-82
2023/04/28 16:21:16;;;;;;;;;;;20.40;38.50;;;19.26;39.46;100875.47;12245732;19;20020;-84
2023/04/28 16:25:18;;;;;;;;;;;20.30;38.40;;;19.24;39.80;100873.78;12242994;19;19930;-85
2023/04/28 16:29:19;;;;;;;;;;;20.20;38.40;;;19.09;39.67;100853.13;12247846;19;20329;-84
2023/04/28 16:33:21;;;;;;;;;;;20.20;38.40;;;19.13;39.55;100873.91;12241640;19;19919;-83
2023/04/28 16:37:22;;;;;;;;;;;20.20;38.50;;;19.14;39.47;100872.94;12249367;19;20412;-83
2023/04/28 16:41:24;;;;;;;;;;;20.10;38.60;;;19.05;39.59;100862.34;12250345;19;19923;-83
2023/04/28 16:45:25;;;;;;;;;;;20.10;38.60;;;19.06;39.89;100870.13;12253877;19;19944;-83
2023/04/28 16:49:27;;;;;;;;;;;20.10;38.70;;;18.95;39.52;100863.13;12251939;19;19937;-83
2023/04/28 16:53:28;;;;;;;;;;;20.00;38.70;;;18.86;39.86;100850.72;12250230;19;19944;-83
2023/04/28 16:57:30;;;;;;;;;;;19.90;38.80;;;18.78;39.79;100850.56;12249005;19;19910;-84
2023/04/28 17:01:31;;;;;;;;;;;19.90;38.80;;;18.82;39.85;100857.25;12251646;19;20349;-83
2023/04/28 17:05:33;;;;;;;;;;;19.80;38.90;;;18.70;40.01;100853.00;12252653;19;19932;-83
2023/04/28 17:09:34;;;;;;;;;;;19.70;38.90;;;18.75;39.77;100858.78;12250085;19;20341;-83
2023/04/28 17:13:36;;;;;;;;;;;19.70;39.20;;;18.67;40.02;100850.63;12252012;19;19921;-82
2023/04/28 17:17:38;;;;;;;;;;;19.70;39.20;;;18.73;39.79;100864.16;12250432;19;20318;-84
2023/04/28 17:21:40;;;;;;;;;;;19.70;39.20;;;18.64;40.05;100842.97;12262752;19;19933;-84
2023/04/28 17:25:41;;;;;;;;;;;19.60;39.20;;;18.60;39.84;100846.84;12260526;19;19918;-83
2023/04/28 17:29:42;;;;;;;;;;;19.60;39.30;;;18.41;39.71;100823.81;12261971;19;19982;-83
2023/04/28 17:33:45;;;;;;;;;;;19.50;39.30;;;18.32;40.01;100812.22;12258433;19;19999;-84
2023/04/28 17:37:46;;;;;;;;;;;19.50;39.30;;;18.33;40.10;100820.03;12257583;19;19918;-83
2023/04/28 17:41:48;;;;;;;;;;;19.40;39.50;;;18.19;40.14;100804.50;12261463;19;19986;-83
2023/04/28 17:45:52;;;;;;;;;;;19.40;39.50;;;18.41;40.04;100837.03;12261240;19;19945;-83
2023/04/28 17:49:55;;;;;;;;;;;19.30;39.40;;;18.28;39.88;100821.38;12260766;19;19931;-83
2023/04/28 17:53:57;;;;;;;;;;;19.30;39.50;;;18.26;40.04;100823.34;12260128;19;19906;-84
2023/04/28 17:57:58;;;;;;;;;;;19.30;39.50;;;18.24;39.99;100835.84;12257999;19;19923;-84
2023/04/28 18:02:00;;;;;;;;;;;19.30;39.60;;;18.25;40.22;100843.63;12261133;19;19923;-84
2023/04/28 18:06:02;;;;;;;;;;;19.20;39.50;;;18.14;40.23;100836.63;12256420;19;19922;-83
2023/04/28 18:10:04;;;;;;;;;;;19.20;39.60;;;18.20;40.33;100853.78;12254688;19;19919;-83
2023/04/28 18:14:05;;;;;;;;;;;19.10;39.60;;;18.17;40.29;100846.09;12257612;19;19919;-83
2023/04/28 18:18:06;;;;;;;;;;;19.10;39.70;;;18.04;40.18;100830.47;12252186;19;20007;-83